Okanogan, WA

1:40 AM PDT on August 01, 2015 (GMT -0700)
Omak | | Change Station
CLOSE
Current Station
Airport
Location: Omak,
Elevation: 1302 ft
Nearby Weather Stations

Elev 1302 ft 48.46 °N, 119.52 °W | Updated 47 minutes ago

Mostly Cloudy
Mostly Cloudy
70 °F
Feels Like 70 °F
N
8
Wind Variable Wind from WNW

Today
High -- | Low -- °F
--% Chance of Precip.
Yesterday
High -- | Low -- °F
Precip. -- in
5:33 AM 8:35 PM
Full, 99% visible
Pressure 29.88 in
Visibility 10.0 miles
Clouds Few 7000 ft
Mostly Cloudy 9500 ft
Mostly Cloudy 11000 ft
Dew Point 29 °F
Humidity 22%
Rainfall 0.00 in
Snow Depth Not available.
UV 0 out of 12
Pollen 6.30 out of 12
Air Quality Not available.
Flu Activity Not available.
METAR KOMK 010753Z AUTO 30007KT 10SM FEW070 BKN095 BKN110 21/M02 A2991 RMK AO2 SLP117 T02111017 404000133

More Conditions Fewer Conditions

Pressure 29.88 in
Visibility 10.0 miles
Clouds Few 7000 ft
Mostly Cloudy 9500 ft
Mostly Cloudy 11000 ft
Dew Point 29 °F
Humidity 22%
Rainfall 0.00 in
Snow Depth Not available.
UV 0 out of 12
Pollen 6.30 out of 12
Air Quality Not available.
Flu Activity Not available.
METAR KOMK 010753Z AUTO 30007KT 10SM FEW070 BKN095 BKN110 21/M02 A2991 RMK AO2 SLP117 T02111017 404000133

More Conditions Fewer Conditions

10-Day Weather Forecast

×

Almanac

Astronomy

Aug. 01, 2015 Rise Set
Actual Time
Civil Twilight
Nautical Twilight
Astronomical Twilight
Moon
Length of Visible Light
Length of Day
Tomorrow will be .
, % of the Moon is Illuminated

Today's Extremes

State Highs State Lows

Community

WunderPhotos

Upload Photos

1,842,905 photos uploaded!

WunderBlogs® & News

Nearby

Air Quality

  Air Quality AQ Index Pollutant
Not available.

Snow Depth

Station Depth Elevation

Earthquake Activity

City Distance Mag. Time & Date
Minimum magnitude displayed is 2.5.

Coastal Water Temperatures

Place Temperature

Stations

Nearby Weather Stations

Station Location Temp. Windchill Dew Point Humidity Wind Precip. Elev Updated Type